sensor_id;sensor_type;location;lat;lon;timestamp;P1;durP1;ratioP1;P2;durP2;ratioP2
75289;SDS011;63883;48.996;20.804;2023-04-01T00:00:55;8.23;;;5.53;;
75289;SDS011;63883;48.996;20.804;2023-04-01T00:03:22;10.18;;;5.47;;
75289;SDS011;63883;48.996;20.804;2023-04-01T00:05:49;8.63;;;5.10;;
75289;SDS011;63883;48.996;20.804;2023-04-01T00:08:15;8.35;;;5.18;;
75289;SDS011;63883;48.996;20.804;2023-04-01T00:10:42;7.70;;;4.78;;
75289;SDS011;63883;48.996;20.804;2023-04-01T00:13:08;8.25;;;5.38;;
75289;SDS011;63883;48.996;20.804;2023-04-01T00:15:34;8.63;;;5.35;;
75289;SDS011;63883;48.996;20.804;2023-04-01T00:18:00;7.97;;;5.10;;
75289;SDS011;63883;48.996;20.804;2023-04-01T00:20:26;7.15;;;5.03;;
75289;SDS011;63883;48.996;20.804;2023-04-01T00:22:52;12.35;;;6.43;;
75289;SDS011;63883;48.996;20.804;2023-04-01T00:25:18;12.05;;;6.72;;
75289;SDS011;63883;48.996;20.804;2023-04-01T00:27:43;9.43;;;5.18;;
75289;SDS011;63883;48.996;20.804;2023-04-01T00:30:10;16.17;;;8.65;;
75289;SDS011;63883;48.996;20.804;2023-04-01T00:32:36;17.17;;;10.18;;
75289;SDS011;63883;48.996;20.804;2023-04-01T00:35:02;16.73;;;10.18;;
75289;SDS011;63883;48.996;20.804;2023-04-01T00:37:28;22.80;;;12.77;;
75289;SDS011;63883;48.996;20.804;2023-04-01T00:39:54;21.05;;;11.02;;
75289;SDS011;63883;48.996;20.804;2023-04-01T00:42:20;25.55;;;12.55;;
75289;SDS011;63883;48.996;20.804;2023-04-01T00:44:51;25.65;;;13.25;;
75289;SDS011;63883;48.996;20.804;2023-04-01T00:47:18;26.80;;;12.95;;
75289;SDS011;63883;48.996;20.804;2023-04-01T00:49:46;37.55;;;14.00;;
75289;SDS011;63883;48.996;20.804;2023-04-01T00:52:20;28.90;;;14.18;;
75289;SDS011;63883;48.996;20.804;2023-04-01T00:54:49;34.83;;;14.68;;
75289;SDS011;63883;48.996;20.804;2023-04-01T00:59:53;30.00;;;14.60;;
75289;SDS011;63883;48.996;20.804;2023-04-01T01:02:20;31.98;;;14.82;;
75289;SDS011;63883;48.996;20.804;2023-04-01T01:04:46;28.05;;;14.50;;
75289;SDS011;63883;48.996;20.804;2023-04-01T01:07:20;28.85;;;14.85;;
75289;SDS011;63883;48.996;20.804;2023-04-01T01:10:24;29.15;;;14.10;;
75289;SDS011;63883;48.996;20.804;2023-04-01T01:13:10;27.77;;;13.43;;
75289;SDS011;63883;48.996;20.804;2023-04-01T01:15:50;26.50;;;13.10;;
75289;SDS011;63883;48.996;20.804;2023-04-01T01:38:12;22.95;;;11.63;;
75289;SDS011;63883;48.996;20.804;2023-04-01T01:40:41;24.70;;;11.93;;
75289;SDS011;63883;48.996;20.804;2023-04-01T01:43:11;23.50;;;11.80;;
75289;SDS011;63883;48.996;20.804;2023-04-01T01:45:43;23.92;;;12.27;;
75289;SDS011;63883;48.996;20.804;2023-04-01T01:48:12;19.58;;;10.80;;
75289;SDS011;63883;48.996;20.804;2023-04-01T01:50:40;21.27;;;11.48;;
75289;SDS011;63883;48.996;20.804;2023-04-01T01:53:09;23.67;;;11.75;;
75289;SDS011;63883;48.996;20.804;2023-04-01T01:55:37;22.00;;;11.75;;
75289;SDS011;63883;48.996;20.804;2023-04-01T01:58:06;20.52;;;10.63;;
75289;SDS011;63883;48.996;20.804;2023-04-01T02:00:34;21.90;;;11.27;;
75289;SDS011;63883;48.996;20.804;2023-04-01T02:03:01;18.65;;;10.02;;
75289;SDS011;63883;48.996;20.804;2023-04-01T02:05:27;17.98;;;9.95;;
75289;SDS011;63883;48.996;20.804;2023-04-01T02:08:06;18.48;;;10.20;;
75289;SDS011;63883;48.996;20.804;2023-04-01T02:10:37;16.48;;;9.15;;
75289;SDS011;63883;48.996;20.804;2023-04-01T02:13:10;16.90;;;9.75;;
75289;SDS011;63883;48.996;20.804;2023-04-01T02:15:43;15.25;;;8.88;;
75289;SDS011;63883;48.996;20.804;2023-04-01T02:18:12;14.48;;;8.45;;
75289;SDS011;63883;48.996;20.804;2023-04-01T02:20:39;14.02;;;8.38;;
75289;SDS011;63883;48.996;20.804;2023-04-01T02:23:06;13.95;;;8.02;;
75289;SDS011;63883;48.996;20.804;2023-04-01T02:25:34;14.05;;;8.32;;
75289;SDS011;63883;48.996;20.804;2023-04-01T02:30:29;13.68;;;7.70;;
75289;SDS011;63883;48.996;20.804;2023-04-01T02:32:57;15.35;;;8.88;;
75289;SDS011;63883;48.996;20.804;2023-04-01T02:35:23;15.00;;;8.60;;
75289;SDS011;63883;48.996;20.804;2023-04-01T02:37:51;12.25;;;7.85;;
75289;SDS011;63883;48.996;20.804;2023-04-01T02:40:18;15.50;;;8.95;;
75289;SDS011;63883;48.996;20.804;2023-04-01T02:42:44;16.30;;;9.70;;
75289;SDS011;63883;48.996;20.804;2023-04-01T02:45:10;15.32;;;8.90;;
75289;SDS011;63883;48.996;20.804;2023-04-01T02:47:37;15.15;;;8.95;;
75289;SDS011;63883;48.996;20.804;2023-04-01T02:50:03;17.75;;;9.43;;
75289;SDS011;63883;48.996;20.804;2023-04-01T02:52:30;15.70;;;8.82;;
75289;SDS011;63883;48.996;20.804;2023-04-01T02:54:56;16.77;;;9.02;;
75289;SDS011;63883;48.996;20.804;2023-04-01T02:57:23;16.25;;;9.38;;
75289;SDS011;63883;48.996;20.804;2023-04-01T02:59:49;15.77;;;8.75;;
75289;SDS011;63883;48.996;20.804;2023-04-01T03:02:15;14.27;;;7.80;;
75289;SDS011;63883;48.996;20.804;2023-04-01T03:04:41;14.10;;;8.55;;
75289;SDS011;63883;48.996;20.804;2023-04-01T03:07:07;18.65;;;9.35;;
75289;SDS011;63883;48.996;20.804;2023-04-01T03:09:35;15.80;;;8.27;;
75289;SDS011;63883;48.996;20.804;2023-04-01T03:12:02;14.40;;;8.52;;
75289;SDS011;63883;48.996;20.804;2023-04-01T03:14:28;15.88;;;9.05;;
75289;SDS011;63883;48.996;20.804;2023-04-01T03:16:54;20.90;;;10.68;;
75289;SDS011;63883;48.996;20.804;2023-04-01T03:19:20;19.17;;;10.90;;
75289;SDS011;63883;48.996;20.804;2023-04-01T03:21:45;23.98;;;11.63;;
75289;SDS011;63883;48.996;20.804;2023-04-01T03:24:11;22.10;;;10.95;;
75289;SDS011;63883;48.996;20.804;2023-04-01T03:26:37;24.75;;;12.02;;
75289;SDS011;63883;48.996;20.804;2023-04-01T03:29:02;23.33;;;12.05;;
75289;SDS011;63883;48.996;20.804;2023-04-01T03:31:28;23.77;;;12.63;;
75289;SDS011;63883;48.996;20.804;2023-04-01T03:33:54;24.08;;;11.98;;
75289;SDS011;63883;48.996;20.804;2023-04-01T03:36:20;23.73;;;11.77;;
75289;SDS011;63883;48.996;20.804;2023-04-01T03:38:46;21.80;;;11.43;;
75289;SDS011;63883;48.996;20.804;2023-04-01T03:41:15;23.50;;;12.05;;
75289;SDS011;63883;48.996;20.804;2023-04-01T03:43:42;22.00;;;10.95;;
75289;SDS011;63883;48.996;20.804;2023-04-01T03:46:08;21.98;;;11.13;;
75289;SDS011;63883;48.996;20.804;2023-04-01T03:48:34;23.08;;;11.35;;
75289;SDS011;63883;48.996;20.804;2023-04-01T03:51:00;22.42;;;11.32;;
75289;SDS011;63883;48.996;20.804;2023-04-01T03:53:26;24.38;;;12.25;;
75289;SDS011;63883;48.996;20.804;2023-04-01T03:55:52;34.70;;;17.95;;
75289;SDS011;63883;48.996;20.804;2023-04-01T03:58:19;26.10;;;13.07;;
75289;SDS011;63883;48.996;20.804;2023-04-01T04:00:45;30.50;;;13.93;;
75289;SDS011;63883;48.996;20.804;2023-04-01T04:03:11;20.52;;;10.23;;
75289;SDS011;63883;48.996;20.804;2023-04-01T04:05:37;14.20;;;8.27;;
75289;SDS011;63883;48.996;20.804;2023-04-01T04:08:03;15.23;;;8.75;;
75289;SDS011;63883;48.996;20.804;2023-04-01T04:10:29;17.05;;;9.27;;
75289;SDS011;63883;48.996;20.804;2023-04-01T04:12:55;19.80;;;10.82;;
75289;SDS011;63883;48.996;20.804;2023-04-01T04:15:22;19.92;;;10.52;;
75289;SDS011;63883;48.996;20.804;2023-04-01T04:17:48;24.00;;;11.95;;
75289;SDS011;63883;48.996;20.804;2023-04-01T04:20:14;26.23;;;12.30;;
75289;SDS011;63883;48.996;20.804;2023-04-01T04:22:40;22.20;;;11.93;;
75289;SDS011;63883;48.996;20.804;2023-04-01T04:25:06;21.85;;;12.38;;
75289;SDS011;63883;48.996;20.804;2023-04-01T04:27:32;24.23;;;11.82;;
75289;SDS011;63883;48.996;20.804;2023-04-01T04:29:59;23.08;;;12.15;;
75289;SDS011;63883;48.996;20.804;2023-04-01T04:32:25;24.77;;;12.15;;
75289;SDS011;63883;48.996;20.804;2023-04-01T04:34:51;20.02;;;11.35;;
75289;SDS011;63883;48.996;20.804;2023-04-01T04:37:16;16.95;;;10.05;;
75289;SDS011;63883;48.996;20.804;2023-04-01T04:39:42;16.30;;;9.35;;
75289;SDS011;63883;48.996;20.804;2023-04-01T04:42:08;19.58;;;10.15;;
75289;SDS011;63883;48.996;20.804;2023-04-01T04:44:33;18.88;;;10.02;;
75289;SDS011;63883;48.996;20.804;2023-04-01T04:46:59;23.00;;;11.60;;
75289;SDS011;63883;48.996;20.804;2023-04-01T04:49:25;21.70;;;11.93;;
75289;SDS011;63883;48.996;20.804;2023-04-01T04:51:51;22.13;;;11.48;;
75289;SDS011;63883;48.996;20.804;2023-04-01T04:54:17;26.20;;;11.77;;
75289;SDS011;63883;48.996;20.804;2023-04-01T04:56:43;24.25;;;11.75;;
75289;SDS011;63883;48.996;20.804;2023-04-01T04:59:09;23.95;;;11.70;;
75289;SDS011;63883;48.996;20.804;2023-04-01T05:01:34;24.42;;;11.55;;
75289;SDS011;63883;48.996;20.804;2023-04-01T05:04:00;24.90;;;11.82;;
75289;SDS011;63883;48.996;20.804;2023-04-01T05:06:26;25.35;;;11.45;;
75289;SDS011;63883;48.996;20.804;2023-04-01T05:08:55;25.23;;;12.30;;
75289;SDS011;63883;48.996;20.804;2023-04-01T05:11:21;35.80;;;11.48;;
75289;SDS011;63883;48.996;20.804;2023-04-01T05:13:47;24.23;;;11.23;;
75289;SDS011;63883;48.996;20.804;2023-04-01T05:16:14;28.17;;;10.68;;
75289;SDS011;63883;48.996;20.804;2023-04-01T05:18:41;49.85;;;12.52;;
75289;SDS011;63883;48.996;20.804;2023-04-01T05:21:07;31.27;;;12.00;;
75289;SDS011;63883;48.996;20.804;2023-04-01T05:23:35;27.17;;;11.48;;
75289;SDS011;63883;48.996;20.804;2023-04-01T05:26:08;23.95;;;11.10;;
75289;SDS011;63883;48.996;20.804;2023-04-01T05:28:36;26.30;;;11.00;;
75289;SDS011;63883;48.996;20.804;2023-04-01T05:31:03;25.17;;;10.88;;
75289;SDS011;63883;48.996;20.804;2023-04-01T05:33:29;23.45;;;11.88;;
75289;SDS011;63883;48.996;20.804;2023-04-01T05:35:55;26.33;;;11.82;;
75289;SDS011;63883;48.996;20.804;2023-04-01T05:38:21;38.40;;;16.35;;
75289;SDS011;63883;48.996;20.804;2023-04-01T05:40:47;30.25;;;13.82;;
75289;SDS011;63883;48.996;20.804;2023-04-01T05:43:12;26.13;;;13.15;;
75289;SDS011;63883;48.996;20.804;2023-04-01T05:45:38;26.75;;;12.20;;
75289;SDS011;63883;48.996;20.804;2023-04-01T05:48:04;25.02;;;13.02;;
75289;SDS011;63883;48.996;20.804;2023-04-01T05:50:30;23.17;;;11.68;;
75289;SDS011;63883;48.996;20.804;2023-04-01T05:52:57;22.80;;;10.98;;
75289;SDS011;63883;48.996;20.804;2023-04-01T05:55:22;21.05;;;10.68;;
75289;SDS011;63883;48.996;20.804;2023-04-01T05:57:48;20.92;;;11.60;;
75289;SDS011;63883;48.996;20.804;2023-04-01T06:00:15;19.00;;;10.80;;
75289;SDS011;63883;48.996;20.804;2023-04-01T06:02:42;20.83;;;11.43;;
75289;SDS011;63883;48.996;20.804;2023-04-01T06:07:37;19.85;;;11.15;;
75289;SDS011;63883;48.996;20.804;2023-04-01T06:10:08;21.83;;;11.15;;
75289;SDS011;63883;48.996;20.804;2023-04-01T06:13:01;19.80;;;10.73;;
75289;SDS011;63883;48.996;20.804;2023-04-01T06:15:33;22.30;;;11.73;;
75289;SDS011;63883;48.996;20.804;2023-04-01T06:23:27;20.02;;;11.05;;
75289;SDS011;63883;48.996;20.804;2023-04-01T06:26:14;19.58;;;10.23;;
75289;SDS011;63883;48.996;20.804;2023-04-01T06:34:38;19.90;;;11.43;;
75289;SDS011;63883;48.996;20.804;2023-04-01T06:37:11;18.02;;;10.40;;
75289;SDS011;63883;48.996;20.804;2023-04-01T06:40:12;17.55;;;10.15;;
75289;SDS011;63883;48.996;20.804;2023-04-01T06:49:03;16.42;;;9.32;;
75289;SDS011;63883;48.996;20.804;2023-04-01T06:54:17;14.55;;;8.88;;
75289;SDS011;63883;48.996;20.804;2023-04-01T06:56:48;18.98;;;9.38;;
75289;SDS011;63883;48.996;20.804;2023-04-01T06:59:22;14.05;;;8.05;;
75289;SDS011;63883;48.996;20.804;2023-04-01T07:01:59;14.13;;;8.63;;
75289;SDS011;63883;48.996;20.804;2023-04-01T07:04:34;13.55;;;8.35;;
75289;SDS011;63883;48.996;20.804;2023-04-01T07:09:48;12.07;;;7.55;;
75289;SDS011;63883;48.996;20.804;2023-04-01T07:14:46;13.85;;;8.48;;
75289;SDS011;63883;48.996;20.804;2023-04-01T07:17:15;14.32;;;8.30;;
75289;SDS011;63883;48.996;20.804;2023-04-01T07:19:53;13.20;;;8.15;;
75289;SDS011;63883;48.996;20.804;2023-04-01T07:24:54;12.18;;;8.13;;
75289;SDS011;63883;48.996;20.804;2023-04-01T07:27:23;13.50;;;7.50;;
75289;SDS011;63883;48.996;20.804;2023-04-01T07:29:49;12.15;;;7.82;;
75289;SDS011;63883;48.996;20.804;2023-04-01T07:32:22;26.52;;;16.13;;
75289;SDS011;63883;48.996;20.804;2023-04-01T07:35:18;14.05;;;9.00;;
75289;SDS011;63883;48.996;20.804;2023-04-01T07:48:59;10.77;;;7.40;;
75289;SDS011;63883;48.996;20.804;2023-04-01T07:56:51;6.03;;;4.22;;
75289;SDS011;63883;48.996;20.804;2023-04-01T08:02:23;6.78;;;4.22;;
75289;SDS011;63883;48.996;20.804;2023-04-01T08:10:23;5.93;;;4.60;;
75289;SDS011;63883;48.996;20.804;2023-04-01T08:18:47;5.80;;;4.35;;
75289;SDS011;63883;48.996;20.804;2023-04-01T08:22:13;7.22;;;5.45;;
75289;SDS011;63883;48.996;20.804;2023-04-01T08:24:27;6.88;;;5.00;;
75289;SDS011;63883;48.996;20.804;2023-04-01T08:27:00;8.35;;;5.90;;
75289;SDS011;63883;48.996;20.804;2023-04-01T08:32:34;7.97;;;5.22;;
75289;SDS011;63883;48.996;20.804;2023-04-01T08:37:53;5.13;;;3.85;;
75289;SDS011;63883;48.996;20.804;2023-04-01T08:46:26;5.70;;;4.03;;
75289;SDS011;63883;48.996;20.804;2023-04-01T08:54:48;5.53;;;4.60;;
75289;SDS011;63883;48.996;20.804;2023-04-01T09:03:08;4.63;;;3.38;;
75289;SDS011;63883;48.996;20.804;2023-04-01T09:13:31;4.97;;;3.28;;
75289;SDS011;63883;48.996;20.804;2023-04-01T09:33:40;3.03;;;2.60;;
75289;SDS011;63883;48.996;20.804;2023-04-01T09:39:03;4.15;;;2.75;;
75289;SDS011;63883;48.996;20.804;2023-04-01T09:47:39;2.65;;;2.38;;
75289;SDS011;63883;48.996;20.804;2023-04-01T10:23:37;2.20;;;2.00;;
75289;SDS011;63883;48.996;20.804;2023-04-01T10:26:35;3.60;;;2.40;;
75289;SDS011;63883;48.996;20.804;2023-04-01T10:29:32;3.15;;;2.03;;
75289;SDS011;63883;48.996;20.804;2023-04-01T10:43:23;1.35;;;1.25;;
75289;SDS011;63883;48.996;20.804;2023-04-01T10:46:41;2.67;;;1.20;;
75289;SDS011;63883;48.996;20.804;2023-04-01T10:54:44;3.38;;;2.22;;
75289;SDS011;63883;48.996;20.804;2023-04-01T11:03:17;1.60;;;1.50;;
75289;SDS011;63883;48.996;20.804;2023-04-01T11:05:54;2.10;;;1.30;;
75289;SDS011;63883;48.996;20.804;2023-04-01T11:17:15;1.77;;;1.60;;
75289;SDS011;63883;48.996;20.804;2023-04-01T11:28:24;1.30;;;1.20;;
75289;SDS011;63883;48.996;20.804;2023-04-01T11:43:06;1.67;;;1.52;;
75289;SDS011;63883;48.996;20.804;2023-04-01T11:45:17;1.90;;;1.40;;
75289;SDS011;63883;48.996;20.804;2023-04-01T12:01:17;5.30;;;4.13;;
75289;SDS011;63883;48.996;20.804;2023-04-01T12:14:12;3.40;;;2.45;;
75289;SDS011;63883;48.996;20.804;2023-04-01T12:30:51;32.78;;;14.05;;
75289;SDS011;63883;48.996;20.804;2023-04-01T12:41:39;17.40;;;7.65;;
75289;SDS011;63883;48.996;20.804;2023-04-01T12:44:47;71.43;;;25.33;;
75289;SDS011;63883;48.996;20.804;2023-04-01T12:55:47;44.78;;;18.73;;
75289;SDS011;63883;48.996;20.804;2023-04-01T13:07:03;9.43;;;5.38;;
75289;SDS011;63883;48.996;20.804;2023-04-01T13:09:26;11.43;;;5.75;;
75289;SDS011;63883;48.996;20.804;2023-04-01T13:17:24;9.30;;;4.68;;
75289;SDS011;63883;48.996;20.804;2023-04-01T13:27:56;19.02;;;10.27;;
75289;SDS011;63883;48.996;20.804;2023-04-01T13:30:55;20.45;;;8.07;;
75289;SDS011;63883;48.996;20.804;2023-04-01T13:50:42;7.30;;;4.10;;
75289;SDS011;63883;48.996;20.804;2023-04-01T13:56:19;3.17;;;2.10;;
75289;SDS011;63883;48.996;20.804;2023-04-01T13:58:57;4.88;;;3.10;;
75289;SDS011;63883;48.996;20.804;2023-04-01T14:04:03;2.28;;;1.50;;
75289;SDS011;63883;48.996;20.804;2023-04-01T14:12:35;3.50;;;1.80;;
75289;SDS011;63883;48.996;20.804;2023-04-01T14:20:38;4.10;;;2.22;;
75289;SDS011;63883;48.996;20.804;2023-04-01T14:26:03;7.10;;;2.80;;
75289;SDS011;63883;48.996;20.804;2023-04-01T14:31:23;7.68;;;2.85;;
75289;SDS011;63883;48.996;20.804;2023-04-01T14:47:48;1.40;;;1.30;;
75289;SDS011;63883;48.996;20.804;2023-04-01T14:50:25;1.83;;;1.35;;
75289;SDS011;63883;48.996;20.804;2023-04-01T14:52:59;1.85;;;1.17;;
75289;SDS011;63883;48.996;20.804;2023-04-01T15:03:20;2.22;;;1.60;;
75289;SDS011;63883;48.996;20.804;2023-04-01T15:12:01;1.83;;;1.60;;
75289;SDS011;63883;48.996;20.804;2023-04-01T15:15:21;2.60;;;1.80;;
75289;SDS011;63883;48.996;20.804;2023-04-01T15:17:53;4.00;;;2.88;;
75289;SDS011;63883;48.996;20.804;2023-04-01T15:23:27;4.22;;;2.60;;
75289;SDS011;63883;48.996;20.804;2023-04-01T15:39:12;2.75;;;2.33;;
75289;SDS011;63883;48.996;20.804;2023-04-01T15:41:50;5.45;;;3.50;;
75289;SDS011;63883;48.996;20.804;2023-04-01T15:49:54;16.40;;;9.35;;
75289;SDS011;63883;48.996;20.804;2023-04-01T16:14:35;18.80;;;11.98;;
75289;SDS011;63883;48.996;20.804;2023-04-01T16:20:00;7.70;;;4.15;;
75289;SDS011;63883;48.996;20.804;2023-04-01T16:23:00;6.30;;;3.80;;
75289;SDS011;63883;48.996;20.804;2023-04-01T16:28:28;12.40;;;6.70;;
75289;SDS011;63883;48.996;20.804;2023-04-01T16:31:00;19.52;;;9.13;;
75289;SDS011;63883;48.996;20.804;2023-04-01T16:36:10;18.95;;;9.10;;
75289;SDS011;63883;48.996;20.804;2023-04-01T16:38:54;15.55;;;7.18;;
75289;SDS011;63883;48.996;20.804;2023-04-01T16:41:41;19.98;;;9.88;;
75289;SDS011;63883;48.996;20.804;2023-04-01T16:44:28;22.30;;;10.23;;
75289;SDS011;63883;48.996;20.804;2023-04-01T16:47:11;11.60;;;6.45;;
75289;SDS011;63883;48.996;20.804;2023-04-01T16:49:42;27.35;;;14.63;;
75289;SDS011;63883;48.996;20.804;2023-04-01T16:52:14;43.13;;;22.33;;
75289;SDS011;63883;48.996;20.804;2023-04-01T17:02:33;8.45;;;4.35;;
75289;SDS011;63883;48.996;20.804;2023-04-01T17:21:31;8.05;;;4.20;;
75289;SDS011;63883;48.996;20.804;2023-04-01T17:24:00;112.45;;;25.08;;
75289;SDS011;63883;48.996;20.804;2023-04-01T17:26:45;283.65;;;53.75;;
75289;SDS011;63883;48.996;20.804;2023-04-01T17:34:12;79.53;;;21.73;;
75289;SDS011;63883;48.996;20.804;2023-04-01T17:47:13;77.15;;;25.50;;
75289;SDS011;63883;48.996;20.804;2023-04-01T18:00:26;42.28;;;17.40;;
75289;SDS011;63883;48.996;20.804;2023-04-01T18:05:41;32.42;;;14.68;;
75289;SDS011;63883;48.996;20.804;2023-04-01T18:16:54;64.28;;;22.05;;
75289;SDS011;63883;48.996;20.804;2023-04-01T18:28:16;58.75;;;25.67;;
75289;SDS011;63883;48.996;20.804;2023-04-01T18:30:43;48.92;;;21.73;;
75289;SDS011;63883;48.996;20.804;2023-04-01T18:33:46;33.72;;;16.05;;
75289;SDS011;63883;48.996;20.804;2023-04-01T18:36:26;44.00;;;20.70;;
75289;SDS011;63883;48.996;20.804;2023-04-01T18:39:23;36.13;;;17.83;;
75289;SDS011;63883;48.996;20.804;2023-04-01T18:41:59;26.60;;;13.55;;
75289;SDS011;63883;48.996;20.804;2023-04-01T18:44:45;24.63;;;12.20;;
75289;SDS011;63883;48.996;20.804;2023-04-01T18:47:30;39.70;;;18.75;;
75289;SDS011;63883;48.996;20.804;2023-04-01T18:52:47;31.33;;;15.75;;
75289;SDS011;63883;48.996;20.804;2023-04-01T18:55:31;25.50;;;12.82;;
75289;SDS011;63883;48.996;20.804;2023-04-01T18:58:11;37.40;;;18.00;;
75289;SDS011;63883;48.996;20.804;2023-04-01T19:00:41;40.45;;;19.50;;
75289;SDS011;63883;48.996;20.804;2023-04-01T19:03:21;38.03;;;18.55;;
75289;SDS011;63883;48.996;20.804;2023-04-01T19:05:52;41.88;;;20.77;;
75289;SDS011;63883;48.996;20.804;2023-04-01T19:08:29;40.25;;;20.75;;
75289;SDS011;63883;48.996;20.804;2023-04-01T19:19:14;31.35;;;15.63;;
75289;SDS011;63883;48.996;20.804;2023-04-01T19:21:47;34.78;;;17.42;;
75289;SDS011;63883;48.996;20.804;2023-04-01T19:24:40;38.35;;;18.38;;
75289;SDS011;63883;48.996;20.804;2023-04-01T19:30:14;21.45;;;10.35;;
75289;SDS011;63883;48.996;20.804;2023-04-01T19:35:27;26.17;;;12.65;;
75289;SDS011;63883;48.996;20.804;2023-04-01T19:54:42;37.05;;;15.65;;
75289;SDS011;63883;48.996;20.804;2023-04-01T20:05:33;54.95;;;24.90;;
75289;SDS011;63883;48.996;20.804;2023-04-01T20:10:46;38.47;;;17.05;;
75289;SDS011;63883;48.996;20.804;2023-04-01T20:16:06;143.65;;;48.42;;
75289;SDS011;63883;48.996;20.804;2023-04-01T20:18:55;113.35;;;41.50;;
75289;SDS011;63883;48.996;20.804;2023-04-01T20:21:36;142.68;;;51.35;;
75289;SDS011;63883;48.996;20.804;2023-04-01T20:24:14;121.30;;;45.38;;
75289;SDS011;63883;48.996;20.804;2023-04-01T20:26:50;63.03;;;25.38;;
75289;SDS011;63883;48.996;20.804;2023-04-01T20:34:44;27.85;;;12.23;;
75289;SDS011;63883;48.996;20.804;2023-04-01T20:45:17;33.08;;;15.35;;
75289;SDS011;63883;48.996;20.804;2023-04-01T20:57:57;33.83;;;15.38;;
75289;SDS011;63883;48.996;20.804;2023-04-01T21:09:06;23.55;;;10.95;;
75289;SDS011;63883;48.996;20.804;2023-04-01T21:24:27;21.23;;;9.38;;
75289;SDS011;63883;48.996;20.804;2023-04-01T21:29:26;14.43;;;7.95;;
75289;SDS011;63883;48.996;20.804;2023-04-01T21:32:07;17.83;;;8.35;;
75289;SDS011;63883;48.996;20.804;2023-04-01T21:35:14;19.92;;;8.77;;
75289;SDS011;63883;48.996;20.804;2023-04-01T21:40:49;14.18;;;7.50;;
75289;SDS011;63883;48.996;20.804;2023-04-01T21:43:37;15.32;;;7.78;;
75289;SDS011;63883;48.996;20.804;2023-04-01T21:51:26;17.45;;;8.82;;
75289;SDS011;63883;48.996;20.804;2023-04-01T21:57:00;21.83;;;9.43;;
75289;SDS011;63883;48.996;20.804;2023-04-01T22:07:52;18.42;;;9.20;;
75289;SDS011;63883;48.996;20.804;2023-04-01T22:13:35;9.75;;;5.72;;
75289;SDS011;63883;48.996;20.804;2023-04-01T22:16:11;11.30;;;5.50;;
75289;SDS011;63883;48.996;20.804;2023-04-01T22:24:07;12.55;;;6.72;;
75289;SDS011;63883;48.996;20.804;2023-04-01T22:26:48;16.33;;;9.30;;
75289;SDS011;63883;48.996;20.804;2023-04-01T22:29:49;15.07;;;7.13;;
75289;SDS011;63883;48.996;20.804;2023-04-01T22:32:26;13.77;;;7.82;;
75289;SDS011;63883;48.996;20.804;2023-04-01T22:46:03;12.00;;;4.85;;
75289;SDS011;63883;48.996;20.804;2023-04-01T22:54:37;6.65;;;4.25;;
75289;SDS011;63883;48.996;20.804;2023-04-01T23:05:43;10.60;;;4.88;;
75289;SDS011;63883;48.996;20.804;2023-04-01T23:10:53;8.43;;;4.60;;
75289;SDS011;63883;48.996;20.804;2023-04-01T23:13:27;6.13;;;4.32;;
75289;SDS011;63883;48.996;20.804;2023-04-01T23:15:57;8.55;;;5.20;;
75289;SDS011;63883;48.996;20.804;2023-04-01T23:23:42;8.07;;;4.50;;
75289;SDS011;63883;48.996;20.804;2023-04-01T23:26:36;7.43;;;4.68;;
75289;SDS011;63883;48.996;20.804;2023-04-01T23:29:11;7.35;;;4.65;;
75289;SDS011;63883;48.996;20.804;2023-04-01T23:31:43;7.40;;;3.97;;
75289;SDS011;63883;48.996;20.804;2023-04-01T23:39:23;8.85;;;4.88;;
75289;SDS011;63883;48.996;20.804;2023-04-01T23:41:59;8.90;;;4.78;;
75289;SDS011;63883;48.996;20.804;2023-04-01T23:44:29;8.48;;;4.72;;
75289;SDS011;63883;48.996;20.804;2023-04-01T23:46:56;7.63;;;4.57;;
75289;SDS011;63883;48.996;20.804;2023-04-01T23:49:25;7.15;;;4.32;;
75289;SDS011;63883;48.996;20.804;2023-04-01T23:51:59;7.47;;;4.38;;
75289;SDS011;63883;48.996;20.804;2023-04-01T23:54:33;9.60;;;5.60;;
75289;SDS011;63883;48.996;20.804;2023-04-01T23:57:09;8.20;;;4.45;;
75289;SDS011;63883;48.996;20.804;2023-04-01T23:59:37;10.48;;;4.60;;
